Wetterdaten: Woche 29.02.16 - 06.03.16 (KW9)
Datum Zeit Temp. A. Feuchte A. Luftdruck Regen Wind Richtung Taupunkt Windchill Windben
29.02.2016 00:00 0,3 C 88 % 1012,3 hPa 0,0 l/m 4,6 km/h (1 Bft) NW -1,4 C 0,3 C 9,2 km/h (2 Bft)
29.02.2016 01:00 0,2 C 88 % 1012,3 hPa 0,0 l/m 4,4 km/h (1 Bft) NW -1,5 C 0,2 C 9,1 km/h (2 Bft)
29.02.2016 02:00 0,1 C 89 % 1012,1 hPa 0,0 l/m 5,1 km/h (1 Bft) NW -1,4 C -0,1 C 10,5 km/h (2 Bft)
29.02.2016 03:00 0,1 C 90 % 1011,8 hPa 0,0 l/m 5,1 km/h (1 Bft) NW -1,3 C -0,1 C 10,3 km/h (2 Bft)
29.02.2016 04:00 0,1 C 90 % 1011,3 hPa 0,0 l/m 4,7 km/h (1 Bft) NW -1,3 C 0,1 C 9,6 km/h (2 Bft)
29.02.2016 05:00 0,1 C 90 % 1011,6 hPa 0,0 l/m 4,6 km/h (1 Bft) NW -1,3 C 0,1 C 9,2 km/h (2 Bft)
29.02.2016 06:00 0,1 C 92 % 1011,8 hPa 0,0 l/m 5,1 km/h (1 Bft) NW -1,0 C -0,1 C 10,3 km/h (2 Bft)
29.02.2016 07:00 -0,0 C 94 % 1011,9 hPa 0,0 l/m 5,3 km/h (1 Bft) NW -0,9 C -0,2 C 10,5 km/h (2 Bft)
29.02.2016 08:00 0,1 C 94 % 1012,3 hPa 0,0 l/m 5,4 km/h (1 Bft) NW -0,8 C -0,1 C 10,2 km/h (2 Bft)
29.02.2016 09:00 0,2 C 95 % 1012,6 hPa 0,0 l/m 5,0 km/h (1 Bft) W-NW -0,6 C -0,0 C 9,9 km/h (2 Bft)
29.02.2016 10:00 0,3 C 95 % 1013,1 hPa 0,0 l/m 3,3 km/h (1 Bft) NW -0,4 C 0,3 C 6,4 km/h (2 Bft)
29.02.2016 11:00 0,6 C 95 % 1013,5 hPa 0,0 l/m 3,4 km/h (1 Bft) NW -0,1 C 0,6 C 6,6 km/h (2 Bft)
29.02.2016 12:00 0,7 C 93 % 1013,9 hPa 0,0 l/m 2,7 km/h (1 Bft) NW -0,2 C 0,7 C 5,3 km/h (1 Bft)
29.02.2016 13:00 0,5 C 94 % 1013,9 hPa 0,0 l/m 2,7 km/h (1 Bft) NW -0,4 C 0,5 C 5,7 km/h (2 Bft)
29.02.2016 14:00 0,4 C 94 % 1014,1 hPa 0,0 l/m 2,7 km/h (1 Bft) NO -0,4 C 0,4 C 5,0 km/h (1 Bft)
29.02.2016 15:00 0,4 C 93 % 1014,6 hPa 0,0 l/m 2,0 km/h (1 Bft) N-NO -0,5 C 0,4 C 4,0 km/h (1 Bft)
29.02.2016 16:00 0,3 C 94 % 1015,4 hPa 0,0 l/m 1,5 km/h (1 Bft) SO -0,6 C 0,3 C 3,1 km/h (1 Bft)
29.02.2016 17:00 0,0 C 95 % 1016,3 hPa 0,0 l/m 0,9 km/h (0 Bft) O -0,7 C 0,0 C 2,1 km/h (1 Bft)
29.02.2016 18:00 -0,3 C 95 % 1017,6 hPa 0,0 l/m 1,6 km/h (1 Bft) O -1,0 C -0,3 C 3,0 km/h (1 Bft)
29.02.2016 19:00 -0,4 C 94 % 1018,5 hPa 0,0 l/m 1,6 km/h (1 Bft) O-NO -1,3 C -0,4 C 3,5 km/h (1 Bft)
29.02.2016 20:00 -0,6 C 92 % 1019,2 hPa 0,0 l/m 2,1 km/h (1 Bft) O-NO -1,7 C -0,6 C 5,3 km/h (1 Bft)
29.02.2016 21:00 -0,7 C 91 % 1019,8 hPa 0,0 l/m 1,2 km/h (1 Bft) SO -2,0 C -0,7 C 2,7 km/h (1 Bft)
29.02.2016 22:00 -0,8 C 91 % 1020,3 hPa 0,0 l/m 0,2 km/h (0 Bft) O-NO -2,1 C -0,8 C 0,9 km/h (0 Bft)
29.02.2016 23:00 -1,0 C 91 % 1020,6 hPa 0,0 l/m 0,9 km/h (0 Bft) O -2,3 C -1,0 C 2,1 km/h (1 Bft)
01.03.2016 00:00 -1,1 C 92 % 1020,8 hPa 0,0 l/m 0,8 km/h (0 Bft) O -2,3 C -1,1 C 2,2 km/h (1 Bft)
01.03.2016 01:00 -1,3 C 92 % 1021,0 hPa 0,0 l/m 0,4 km/h (0 Bft) O-SO -2,4 C -1,3 C 2,4 km/h (1 Bft)
01.03.2016 02:00 -1,3 C 92 % 1021,1 hPa 0,0 l/m 0,2 km/h (0 Bft) O-SO -2,5 C -1,3 C 1,5 km/h (1 Bft)
01.03.2016 03:00 -1,3 C 93 % 1021,1 hPa 0,0 l/m 0,8 km/h (0 Bft) O-SO -2,4 C -1,3 C 2,2 km/h (1 Bft)
01.03.2016 04:00 -1,3 C 91 % 1021,5 hPa 0,0 l/m 1,9 km/h (1 Bft) O -2,6 C -1,3 C 6,3 km/h (2 Bft)
01.03.2016 05:00 -1,4 C 90 % 1022,2 hPa 0,0 l/m 0,4 km/h (0 Bft) SO -2,8 C -1,4 C 2,1 km/h (1 Bft)
01.03.2016 06:00 -1,4 C 90 % 1022,4 hPa 0,0 l/m 0,8 km/h (0 Bft) SO -2,8 C -1,4 C 2,6 km/h (1 Bft)
01.03.2016 07:00 -1,5 C 90 % 1022,6 hPa 0,0 l/m 1,7 km/h (1 Bft) NO -2,9 C -1,5 C 4,7 km/h (1 Bft)
01.03.2016 08:00 -1,0 C 88 % 1023,2 hPa 0,0 l/m 1,7 km/h (1 Bft) O-NO -2,8 C -1,0 C 4,6 km/h (1 Bft)
01.03.2016 09:00 -0,5 C 86 % 1023,1 hPa 0,0 l/m 2,3 km/h (1 Bft) O-NO -2,5 C -0,5 C 5,1 km/h (1 Bft)
01.03.2016 10:00 0,5 C 83 % 1023,2 hPa 0,0 l/m 3,1 km/h (1 Bft) O-NO -2,0 C 0,5 C 6,5 km/h (2 Bft)
01.03.2016 11:00 1,7 C 79 % 1023,0 hPa 0,5 l/m 3,1 km/h (1 Bft) NO -1,5 C 1,7 C 7,3 km/h (2 Bft)
01.03.2016 12:00 2,4 C 77 % 1022,4 hPa 0,0 l/m 4,1 km/h (1 Bft) O -1,3 C 2,3 C 9,9 km/h (2 Bft)
01.03.2016 13:00 2,6 C 77 % 1021,4 hPa 0,0 l/m 4,8 km/h (1 Bft) O -1,1 C 2,5 C 11,4 km/h (2 Bft)
01.03.2016 14:00 3,7 C 72 % 1020,6 hPa 0,0 l/m 5,7 km/h (2 Bft) O-NO -0,8 C 3,4 C 13,6 km/h (3 Bft)
01.03.2016 15:00 4,9 C 66 % 1020,1 hPa 0,0 l/m 6,5 km/h (2 Bft) O-NO -1,0 C 4,4 C 14,3 km/h (3 Bft)
01.03.2016 16:00 4,3 C 65 % 1019,8 hPa 0,0 l/m 5,7 km/h (2 Bft) O-NO -1,8 C 3,9 C 13,8 km/h (3 Bft)
01.03.2016 17:00 3,0 C 70 % 1019,4 hPa 0,0 l/m 4,3 km/h (1 Bft) O-NO -1,8 C 3,0 C 10,8 km/h (2 Bft)
01.03.2016 18:00 2,7 C 72 % 1018,9 hPa 0,0 l/m 4,0 km/h (1 Bft) O-NO -1,9 C 2,6 C 6,8 km/h (2 Bft)
01.03.2016 19:00 2,4 C 68 % 1018,5 hPa 0,0 l/m 6,2 km/h (2 Bft) O-NO -3,0 C 1,7 C 11,2 km/h (2 Bft)
01.03.2016 20:00 1,5 C 76 % 1018,2 hPa 0,0 l/m 7,0 km/h (2 Bft) O-NO -2,4 C 0,1 C 13,2 km/h (3 Bft)
01.03.2016 21:00 0,2 C 89 % 1018,1 hPa 0,0 l/m 5,7 km/h (2 Bft) O-NO -1,5 C -0,2 C 12,9 km/h (3 Bft)
01.03.2016 22:00 -0,3 C 94 % 1017,4 hPa 0,0 l/m 6,5 km/h (2 Bft) N-NO -1,2 C -0,7 C 15,4 km/h (3 Bft)
01.03.2016 23:00 -0,0 C 95 % 1016,4 hPa 0,0 l/m 5,2 km/h (1 Bft) NO -0,8 C -0,0 C 11,7 km/h (2 Bft)
02.03.2016 00:00 0,3 C 95 % 1015,5 hPa 0,0 l/m 5,1 km/h (1 Bft) O-NO -0,5 C 0,1 C 10,9 km/h (2 Bft)
02.03.2016 01:00 0,7 C 95 % 1014,5 hPa 0,0 l/m 4,3 km/h (1 Bft) NO -0,0 C 0,7 C 9,8 km/h (2 Bft)
02.03.2016 02:00 0,9 C 96 % 1013,6 hPa 0,5 l/m 4,1 km/h (1 Bft) NO 0,3 C 0,9 C 8,4 km/h (2 Bft)
02.03.2016 03:00 1,7 C 97 % 1012,8 hPa 1,8 l/m 5,5 km/h (2 Bft) NO 1,2 C 1,3 C 12,0 km/h (2 Bft)
02.03.2016 04:00 2,5 C 96 % 1011,9 hPa 1,8 l/m 7,1 km/h (2 Bft) O-NO 1,9 C 1,7 C 16,9 km/h (3 Bft)
02.03.2016 05:00 2,4 C 96 % 1011,2 hPa 0,0 l/m 1,5 km/h (1 Bft) O-NO 1,9 C 2,4 C 4,1 km/h (1 Bft)
02.03.2016 06:00 2,7 C 96 % 1010,4 hPa 0,3 l/m 3,3 km/h (1 Bft) O-NO 2,2 C 2,7 C 7,7 km/h (2 Bft)
02.03.2016 07:00 3,3 C 95 % 1009,4 hPa 0,0 l/m 3,5 km/h (1 Bft) O-NO 2,6 C 3,2 C 7,8 km/h (2 Bft)
02.03.2016 08:00 3,7 C 95 % 1008,2 hPa 0,0 l/m 2,5 km/h (1 Bft) O 3,0 C 3,7 C 6,2 km/h (2 Bft)
02.03.2016 09:00 4,1 C 95 % 1007,4 hPa 0,3 l/m 4,5 km/h (1 Bft) O-NO 3,3 C 3,6 C 10,2 km/h (2 Bft)
02.03.2016 10:00 4,7 C 95 % 1006,0 hPa 2,0 l/m 7,8 km/h (2 Bft) O-NO 3,9 C 3,4 C 21,0 km/h (4 Bft)
02.03.2016 11:00 5,2 C 94 % 1004,5 hPa 0,0 l/m 7,8 km/h (2 Bft) O 4,3 C 4,0 C 18,8 km/h (3 Bft)
02.03.2016 12:00 5,4 C 93 % 1003,8 hPa 1,5 l/m 5,8 km/h (2 Bft) O-NO 4,4 C 5,1 C 12,3 km/h (2 Bft)
02.03.2016 13:00 5,3 C 94 % 1002,2 hPa 4,1 l/m 4,9 km/h (1 Bft) O-NO 4,5 C 5,3 C 14,0 km/h (3 Bft)
02.03.2016 14:00 3,8 C 92 % 1001,9 hPa 3,8 l/m 3,8 km/h (1 Bft) O-NO 2,7 C 3,8 C 11,4 km/h (2 Bft)
02.03.2016 15:00 1,5 C 93 % 1002,9 hPa 0,8 l/m 2,6 km/h (1 Bft) O 0,6 C 1,5 C 7,2 km/h (2 Bft)
02.03.2016 16:00 0,5 C 95 % 1003,3 hPa 0,3 l/m 2,0 km/h (1 Bft) O -0,2 C 0,5 C 5,5 km/h (2 Bft)
02.03.2016 17:00 0,1 C 96 % 1003,8 hPa 0,3 l/m 2,5 km/h (1 Bft) NO -0,4 C 0,1 C 6,3 km/h (2 Bft)
02.03.2016 18:00 0,1 C 96 % 1004,3 hPa 0,0 l/m 3,9 km/h (1 Bft) O-NO -0,5 C 0,1 C 8,5 km/h (2 Bft)
02.03.2016 19:00 0,1 C 95 % 1005,7 hPa 0,0 l/m 4,3 km/h (1 Bft) O-NO -0,6 C 0,1 C 11,1 km/h (2 Bft)
02.03.2016 20:00 -0,1 C 94 % 1004,7 hPa 0,0 l/m 4,0 km/h (1 Bft) O-NO -1,0 C -0,1 C 9,3 km/h (2 Bft)
02.03.2016 21:00 -0,2 C 94 % 1004,7 hPa 0,0 l/m 3,3 km/h (1 Bft) O-NO -1,0 C -0,2 C 6,7 km/h (2 Bft)
02.03.2016 22:00 -0,3 C 95 % 1003,9 hPa 0,0 l/m 1,1 km/h (1 Bft) O -1,0 C -0,3 C 2,9 km/h (1 Bft)
02.03.2016 23:00 -0,6 C 95 % 1003,8 hPa 0,0 l/m 2,4 km/h (1 Bft) O-NO -1,4 C -0,6 C 6,2 km/h (2 Bft)
03.03.2016 00:00 -0,8 C 94 % 1004,0 hPa 0,0 l/m 3,5 km/h (1 Bft) O-NO -1,6 C -0,8 C 7,7 km/h (2 Bft)
03.03.2016 01:00 -0,7 C 95 % 1004,0 hPa 0,0 l/m 3,3 km/h (1 Bft) O -1,4 C -0,7 C 7,8 km/h (2 Bft)
03.03.2016 02:00 -0,8 C 96 % 1004,2 hPa 0,0 l/m 4,4 km/h (1 Bft) O -1,4 C -0,9 C 10,7 km/h (2 Bft)
03.03.2016 03:00 -0,8 C 95 % 1004,0 hPa 0,0 l/m 4,2 km/h (1 Bft) NO -1,5 C -0,8 C 10,2 km/h (2 Bft)
03.03.2016 04:00 -0,9 C 94 % 1003,9 hPa 0,0 l/m 2,7 km/h (1 Bft) O -1,7 C -0,9 C 8,0 km/h (2 Bft)
03.03.2016 05:00 -1,0 C 94 % 1003,7 hPa 0,0 l/m 3,1 km/h (1 Bft) O-NO -1,8 C -1,0 C 7,5 km/h (2 Bft)
03.03.2016 06:00 -1,1 C 94 % 1003,6 hPa 0,0 l/m 4,1 km/h (1 Bft) O-NO -2,0 C -1,1 C 8,7 km/h (2 Bft)
03.03.2016 07:00 -1,4 C 92 % 1003,4 hPa 0,0 l/m 2,5 km/h (1 Bft) NO -2,5 C -1,4 C 6,1 km/h (2 Bft)
03.03.2016 08:00 -1,8 C 92 % 1003,1 hPa 0,0 l/m 2,8 km/h (1 Bft) O -2,9 C -1,8 C 5,7 km/h (2 Bft)
03.03.2016 09:00 -0,9 C 90 % 1002,8 hPa 0,0 l/m 3,2 km/h (1 Bft) O -2,3 C -0,9 C 7,5 km/h (2 Bft)
03.03.2016 10:00 0,0 C 89 % 1002,4 hPa 0,3 l/m 3,9 km/h (1 Bft) O-NO -1,5 C 0,0 C 10,5 km/h (2 Bft)
03.03.2016 11:00 0,6 C 92 % 1002,1 hPa 0,8 l/m 2,3 km/h (1 Bft) O-NO -0,5 C 0,6 C 5,3 km/h (1 Bft)
03.03.2016 12:00 0,5 C 94 % 1002,3 hPa 0,8 l/m 3,4 km/h (1 Bft) NO -0,3 C 0,5 C 7,7 km/h (2 Bft)
03.03.2016 13:00 1,2 C 93 % 1002,1 hPa 2,0 l/m 3,3 km/h (1 Bft) O-NO 0,2 C 1,2 C 7,3 km/h (2 Bft)
03.03.2016 14:00 1,7 C 92 % 1002,0 hPa 2,0 l/m 2,5 km/h (1 Bft) O-NO 0,5 C 1,7 C 6,0 km/h (2 Bft)
03.03.2016 15:00 1,1 C 94 % 1002,4 hPa 0,8 l/m 1,8 km/h (1 Bft) SO 0,2 C 1,1 C 3,9 km/h (1 Bft)
03.03.2016 16:00 1,0 C 94 % 1003,1 hPa 1,5 l/m 2,8 km/h (1 Bft) O 0,2 C 1,0 C 7,2 km/h (2 Bft)
03.03.2016 17:00 0,5 C 95 % 1004,3 hPa 0,5 l/m 2,2 km/h (1 Bft) O -0,2 C 0,5 C 5,3 km/h (1 Bft)
03.03.2016 18:00 0,3 C 94 % 1005,1 hPa 0,3 l/m 1,2 km/h (1 Bft) SO -0,5 C 0,3 C 2,9 km/h (1 Bft)
03.03.2016 19:00 0,1 C 96 % 1006,5 hPa 0,0 l/m 0,0 km/h (0 Bft) SO -0,5 C 0,1 C 0,0 km/h (0 Bft)
03.03.2016 20:00 -0,1 C 96 % 1007,4 hPa 0,0 l/m 0,0 km/h (0 Bft) SO -0,6 C -0,1 C 0,0 km/h (0 Bft)
03.03.2016 21:00 -0,1 C 97 % 1007,9 hPa 0,0 l/m 0,0 km/h (0 Bft) SO -0,5 C -0,1 C 0,0 km/h (0 Bft)
03.03.2016 22:00 0,1 C 97 % 1008,6 hPa 0,3 l/m 0,0 km/h (0 Bft) O -0,4 C 0,1 C 0,0 km/h (0 Bft)
03.03.2016 23:00 0,0 C 96 % 1009,0 hPa 0,0 l/m 0,9 km/h (0 Bft) O -0,6 C 0,0 C 3,0 km/h (1 Bft)
04.03.2016 00:00 -0,2 C 96 % 1009,1 hPa 0,0 l/m 1,2 km/h (1 Bft) O -0,7 C -0,2 C 3,0 km/h (1 Bft)
04.03.2016 01:00 -0,1 C 96 % 1009,5 hPa 0,0 l/m 2,0 km/h (1 Bft) O -0,7 C -0,1 C 5,2 km/h (1 Bft)
04.03.2016 02:00 -0,3 C 96 % 1009,2 hPa 0,0 l/m 2,6 km/h (1 Bft) O -0,9 C -0,3 C 5,8 km/h (2 Bft)
04.03.2016 03:00 -0,5 C 95 % 1008,9 hPa 0,0 l/m 1,7 km/h (1 Bft) O -1,2 C -0,5 C 4,1 km/h (1 Bft)
04.03.2016 04:00 -0,7 C 95 % 1008,4 hPa 0,0 l/m 1,4 km/h (1 Bft) O -1,4 C -0,7 C 3,6 km/h (1 Bft)
04.03.2016 05:00 -2,0 C 94 % 1007,4 hPa 0,0 l/m 1,4 km/h (1 Bft) NO -2,9 C -2,0 C 3,4 km/h (1 Bft)
04.03.2016 06:00 -3,1 C 93 % 1006,7 hPa 0,0 l/m 2,5 km/h (1 Bft) NO -4,0 C -3,1 C 5,4 km/h (1 Bft)
04.03.2016 07:00 -3,6 C 93 % 1005,6 hPa 0,0 l/m 1,3 km/h (1 Bft) O -4,6 C -3,6 C 3,9 km/h (1 Bft)
04.03.2016 08:00 -2,4 C 91 % 1004,7 hPa 0,0 l/m 2,9 km/h (1 Bft) O-NO -3,6 C -2,4 C 6,2 km/h (2 Bft)
04.03.2016 09:00 -1,5 C 91 % 1004,0 hPa 0,0 l/m 3,0 km/h (1 Bft) O -2,7 C -1,5 C 7,8 km/h (2 Bft)
04.03.2016 10:00 0,1 C 88 % 1002,8 hPa 0,8 l/m 2,5 km/h (1 Bft) SO -1,6 C 0,1 C 7,6 km/h (2 Bft)
04.03.2016 11:00 1,2 C 84 % 1001,6 hPa 0,8 l/m 3,5 km/h (1 Bft) O-NO -1,2 C 1,2 C 10,3 km/h (2 Bft)
04.03.2016 12:00 2,0 C 80 % 1000,8 hPa 1,3 l/m 3,8 km/h (1 Bft) O-NO -1,1 C 2,0 C 9,5 km/h (2 Bft)
04.03.2016 13:00 1,8 C 79 % 999,8 hPa 0,5 l/m 5,0 km/h (1 Bft) O-NO -1,6 C 1,7 C 13,8 km/h (3 Bft)
04.03.2016 14:00 1,3 C 83 % 999,5 hPa 0,5 l/m 5,7 km/h (2 Bft) O -1,2 C 1,2 C 14,3 km/h (3 Bft)
04.03.2016 15:00 0,8 C 91 % 999,1 hPa 0,5 l/m 5,8 km/h (2 Bft) O-NO -0,4 C 0,7 C 13,5 km/h (3 Bft)
04.03.2016 16:00 1,2 C 92 % 998,5 hPa 1,3 l/m 4,1 km/h (1 Bft) O -0,1 C 1,2 C 12,1 km/h (2 Bft)
04.03.2016 17:00 1,2 C 92 % 998,0 hPa 0,8 l/m 5,6 km/h (2 Bft) O 0,0 C 1,0 C 13,9 km/h (3 Bft)
04.03.2016 18:00 1,4 C 92 % 997,8 hPa 0,5 l/m 5,4 km/h (2 Bft) O-NO 0,2 C 1,1 C 12,8 km/h (3 Bft)
04.03.2016 19:00 1,4 C 92 % 997,7 hPa 0,8 l/m 5,9 km/h (2 Bft) O-SO 0,3 C 1,4 C 14,2 km/h (3 Bft)
04.03.2016 20:00 1,3 C 93 % 997,5 hPa 1,3 l/m 4,4 km/h (1 Bft) O-NO 0,3 C 1,3 C 10,9 km/h (2 Bft)
04.03.2016 21:00 1,3 C 93 % 997,4 hPa 1,0 l/m 3,8 km/h (1 Bft) O 0,3 C 1,3 C 8,9 km/h (2 Bft)
04.03.2016 22:00 1,5 C 94 % 997,1 hPa 1,3 l/m 2,6 km/h (1 Bft) O 0,6 C 1,5 C 8,0 km/h (2 Bft)
04.03.2016 23:00 1,8 C 94 % 996,6 hPa 0,5 l/m 1,9 km/h (1 Bft) O-NO 1,0 C 1,8 C 4,8 km/h (1 Bft)
05.03.2016 00:00 1,8 C 94 % 996,6 hPa 0,5 l/m 3,8 km/h (1 Bft) O-NO 0,9 C 1,8 C 8,6 km/h (2 Bft)
05.03.2016 01:00 1,8 C 93 % 996,0 hPa 0,3 l/m 3,1 km/h (1 Bft) O-NO 0,8 C 1,8 C 7,4 km/h (2 Bft)
05.03.2016 02:00 1,5 C 95 % 995,7 hPa 1,3 l/m 2,5 km/h (1 Bft) O 0,7 C 1,5 C 5,2 km/h (1 Bft)
05.03.2016 03:00 1,2 C 95 % 995,4 hPa 0,5 l/m 1,9 km/h (1 Bft) O 0,6 C 1,2 C 4,2 km/h (1 Bft)
05.03.2016 04:00 0,9 C 97 % 995,5 hPa 1,0 l/m 1,0 km/h (0 Bft) O 0,5 C 0,9 C 2,9 km/h (1 Bft)
05.03.2016 05:00 1,0 C 97 % 995,5 hPa 0,0 l/m 0,9 km/h (0 Bft) O 0,6 C 1,0 C 1,9 km/h (1 Bft)
05.03.2016 06:00 1,4 C 97 % 995,5 hPa 0,0 l/m 3,1 km/h (1 Bft) O 0,9 C 1,4 C 7,2 km/h (2 Bft)
05.03.2016 07:00 2,1 C 95 % 995,8 hPa 0,0 l/m 4,1 km/h (1 Bft) O 1,4 C 2,1 C 10,5 km/h (2 Bft)
05.03.2016 08:00 2,3 C 95 % 996,0 hPa 0,0 l/m 3,1 km/h (1 Bft) O-NO 1,5 C 2,3 C 7,4 km/h (2 Bft)
05.03.2016 09:00 2,4 C 95 % 996,1 hPa 0,0 l/m 1,9 km/h (1 Bft) NO 1,6 C 2,4 C 4,3 km/h (1 Bft)
05.03.2016 10:00 2,6 C 95 % 996,5 hPa 0,0 l/m 0,5 km/h (0 Bft) N-NO 1,8 C 2,6 C 2,4 km/h (1 Bft)
05.03.2016 11:00 3,4 C 90 % 996,3 hPa 0,0 l/m 2,1 km/h (1 Bft) O-NO 1,9 C 3,4 C 4,1 km/h (1 Bft)
05.03.2016 12:00 3,4 C 88 % 996,3 hPa 0,0 l/m 2,4 km/h (1 Bft) NO 1,6 C 3,4 C 5,2 km/h (1 Bft)
05.03.2016 13:00 3,4 C 88 % 996,4 hPa 0,0 l/m 2,3 km/h (1 Bft) NO 1,7 C 3,4 C 5,3 km/h (1 Bft)
05.03.2016 14:00 3,4 C 88 % 996,4 hPa 0,0 l/m 2,0 km/h (1 Bft) O 1,6 C 3,4 C 4,5 km/h (1 Bft)
05.03.2016 15:00 3,3 C 89 % 996,6 hPa 0,0 l/m 1,6 km/h (1 Bft) O 1,6 C 3,3 C 3,4 km/h (1 Bft)
05.03.2016 16:00 3,0 C 89 % 996,5 hPa 0,0 l/m 1,5 km/h (1 Bft) O 1,4 C 3,0 C 3,2 km/h (1 Bft)
05.03.2016 17:00 2,4 C 91 % 996,8 hPa 0,0 l/m 2,1 km/h (1 Bft) NO 1,1 C 2,4 C 4,7 km/h (1 Bft)
05.03.2016 18:00 1,8 C 93 % 996,9 hPa 0,0 l/m 0,8 km/h (0 Bft) O-NO 0,8 C 1,8 C 2,7 km/h (1 Bft)
05.03.2016 19:00 0,9 C 95 % 997,2 hPa 0,0 l/m 0,1 km/h (0 Bft) O-NO 0,2 C 0,9 C 0,7 km/h (0 Bft)
05.03.2016 20:00 0,2 C 96 % 997,5 hPa 0,0 l/m 0,3 km/h (0 Bft) O -0,4 C 0,2 C 1,5 km/h (1 Bft)
05.03.2016 21:00 -0,2 C 96 % 997,8 hPa 0,0 l/m 0,5 km/h (0 Bft) O -0,8 C -0,2 C 1,7 km/h (1 Bft)
05.03.2016 22:00 -0,2 C 97 % 998,3 hPa 0,0 l/m 0,4 km/h (0 Bft) O -0,6 C -0,2 C 2,0 km/h (1 Bft)
05.03.2016 23:00 0,4 C 97 % 998,5 hPa 0,0 l/m 1,6 km/h (1 Bft) O-NO -0,1 C 0,4 C 3,7 km/h (1 Bft)
06.03.2016 00:00 0,4 C 96 % 998,6 hPa 0,0 l/m 1,2 km/h (1 Bft) O -0,2 C 0,4 C 3,4 km/h (1 Bft)
06.03.2016 01:00 0,4 C 96 % 998,9 hPa 0,0 l/m 2,3 km/h (1 Bft) O-NO -0,3 C 0,4 C 5,5 km/h (2 Bft)
06.03.2016 02:00 0,4 C 94 % 999,0 hPa 0,0 l/m 6,4 km/h (2 Bft) NO -0,4 C -0,1 C 15,0 km/h (3 Bft)
06.03.2016 03:00 -0,1 C 94 % 999,7 hPa 0,0 l/m 3,9 km/h (1 Bft) O -0,9 C -0,1 C 8,3 km/h (2 Bft)
06.03.2016 04:00 -0,6 C 96 % 1000,4 hPa 0,0 l/m 2,0 km/h (1 Bft) O -1,2 C -0,6 C 5,7 km/h (2 Bft)
06.03.2016 05:00 -0,7 C 96 % 1001,2 hPa 0,3 l/m 4,3 km/h (1 Bft) O-NO -1,3 C -0,7 C 10,4 km/h (2 Bft)
06.03.2016 06:00 -0,8 C 95 % 1001,6 hPa 0,0 l/m 3,4 km/h (1 Bft) O-NO -1,6 C -0,8 C 8,4 km/h (2 Bft)
06.03.2016 07:00 -0,7 C 95 % 1002,1 hPa 0,0 l/m 2,9 km/h (1 Bft) O-NO -1,4 C -0,7 C 8,3 km/h (2 Bft)
06.03.2016 08:00 -0,3 C 94 % 1002,6 hPa 0,0 l/m 4,2 km/h (1 Bft) O-NO -1,2 C -0,3 C 10,6 km/h (2 Bft)
06.03.2016 09:00 0,0 C 93 % 1003,0 hPa 0,0 l/m 5,3 km/h (1 Bft) O -1,0 C -0,1 C 10,7 km/h (2 Bft)
06.03.2016 10:00 0,1 C 94 % 1003,5 hPa 0,0 l/m 5,5 km/h (2 Bft) N-NO -0,9 C -0,0 C 13,6 km/h (3 Bft)
06.03.2016 11:00 0,8 C 91 % 1003,7 hPa 1,5 l/m 5,9 km/h (2 Bft) O-NO -0,5 C 0,6 C 12,8 km/h (3 Bft)
06.03.2016 12:00 1,1 C 90 % 1003,5 hPa 1,3 l/m 7,0 km/h (2 Bft) O-NO -0,3 C 0,3 C 14,9 km/h (3 Bft)
06.03.2016 13:00 1,1 C 91 % 1003,5 hPa 0,3 l/m 5,3 km/h (1 Bft) O-NO -0,2 C 0,7 C 13,0 km/h (3 Bft)
06.03.2016 14:00 0,0 C 95 % 1003,6 hPa 0,0 l/m 2,5 km/h (1 Bft) O-NO -0,7 C 0,0 C 6,8 km/h (2 Bft)
06.03.2016 15:00 0,3 C 95 % 1003,6 hPa 0,0 l/m 4,1 km/h (1 Bft) O-NO -0,4 C 0,3 C 8,3 km/h (2 Bft)
06.03.2016 16:00 1,1 C 93 % 1003,5 hPa 0,8 l/m 4,5 km/h (1 Bft) O-NO 0,0 C 1,1 C 10,6 km/h (2 Bft)
06.03.2016 17:00 0,5 C 91 % 1003,8 hPa 0,8 l/m 4,5 km/h (1 Bft) O-NO -0,8 C 0,5 C 10,3 km/h (2 Bft)
06.03.2016 18:00 0,1 C 92 % 1004,2 hPa 0,0 l/m 3,2 km/h (1 Bft) NO -1,1 C 0,1 C 6,8 km/h (2 Bft)
06.03.2016 19:00 -0,9 C 94 % 1004,6 hPa 0,0 l/m 1,3 km/h (1 Bft) O-NO -1,7 C -0,9 C 4,3 km/h (1 Bft)
06.03.2016 20:00 -0,4 C 94 % 1004,8 hPa 0,0 l/m 3,4 km/h (1 Bft) O-NO -1,3 C -0,4 C 8,2 km/h (2 Bft)
06.03.2016 21:00 -0,3 C 93 % 1005,1 hPa 0,0 l/m 4,5 km/h (1 Bft) O -1,3 C -0,3 C 11,5 km/h (2 Bft)
06.03.2016 22:00 -0,5 C 94 % 1005,3 hPa 0,0 l/m 3,1 km/h (1 Bft) O -1,4 C -0,5 C 7,8 km/h (2 Bft)
06.03.2016 23:00 -0,7 C 94 % 1005,4 hPa 0,0 l/m 3,4 km/h (1 Bft) O-NO -1,5 C -0,7 C 7,9 km/h (2 Bft)
Min-Datum _ 04.03.16 01.03.16 05.03.16 - 06.03.16 - 04.03.16 29.02.16 06.03.16
_ Min-Zeit 07:00 16:10 03:55 - 14:25 - 07:40 07:53 14:25
Minimum _ -3,8 C 62 % 995,0 hPa - 0,0 km/h (0 Bft) - -4,8 C -4,5 C 0,0 km/h (0 Bft)
Max-Datum _ 02.03.16 05.03.16 01.03.16 02.03.16 01.03.16 - 02.03.16 02.03.16 02.03.16
_ Max-Zeit 13:00 23:00 11:00 13:50 20:00 - 13:05 12:05 10:15
Maximum _ 5,4 C 97 % 1023,3 hPa 4,1 l/m 12,9 km/h
O-NO (3 Bft)
- 4,7 C 5,4 C 35,4 km/h
NO (5 Bft)
Durchschnitt _ 0,7 C 92 % 1006,9 hPa #47,0 l/m 3,2 km/h (1 Bft) O-NO -0,6 C 0,6 C 7,5 km/h (2 Bft)